createdAt,value
2022-11-11T00:01:12.977Z,33.75
2022-11-11T00:03:39.880Z,28.85
2022-11-11T00:06:10.675Z,30.42
2022-11-11T00:08:37.231Z,31.13
2022-11-11T00:11:09.835Z,30.75
2022-11-11T00:13:38.271Z,35.80
2022-11-11T00:16:10.306Z,34.13
2022-11-11T00:18:56.013Z,32.88
2022-11-11T00:21:41.023Z,27.07
2022-11-11T00:24:38.140Z,32.05
2022-11-11T00:27:05.658Z,31.70
2022-11-11T00:29:32.324Z,35.00
2022-11-11T00:32:17.346Z,32.10
2022-11-11T00:35:04.016Z,32.63
2022-11-11T00:37:30.525Z,33.00
2022-11-11T00:39:57.130Z,37.33
2022-11-11T00:42:23.756Z,36.45
2022-11-11T00:44:50.390Z,27.63
2022-11-11T00:47:35.957Z,30.30
2022-11-11T00:50:22.967Z,36.42
2022-11-11T00:52:49.588Z,35.88
2022-11-11T00:55:16.413Z,38.05
2022-11-11T00:57:43.009Z,36.72
2022-11-11T01:00:10.191Z,34.07
2022-11-11T01:02:36.910Z,25.90
2022-11-11T01:05:03.852Z,35.30
2022-11-11T01:07:30.485Z,26.60
2022-11-11T01:09:57.315Z,32.28
2022-11-11T01:12:23.969Z,27.03
2022-11-11T01:14:50.587Z,34.10
2022-11-11T01:17:17.208Z,33.20
2022-11-11T01:19:43.857Z,35.35
2022-11-11T01:22:11.472Z,36.85
2022-11-11T01:24:38.729Z,34.07
2022-11-11T01:27:05.483Z,31.48
2022-11-11T01:29:32.016Z,34.53
2022-11-11T01:31:58.573Z,30.98
2022-11-11T01:34:25.299Z,35.72
2022-11-11T01:36:51.826Z,33.40
2022-11-11T01:39:18.416Z,37.30
2022-11-11T01:41:45.318Z,33.28
2022-11-11T01:44:11.908Z,35.72
2022-11-11T01:46:45.883Z,33.08
2022-11-11T01:49:42.725Z,32.10
2022-11-11T01:52:15.352Z,30.55
2022-11-11T01:54:54.558Z,34.50
2022-11-11T01:57:33.367Z,39.63
2022-11-11T02:00:06.131Z,36.22
2022-11-11T02:02:41.865Z,32.70
2022-11-11T02:05:32.593Z,35.83
2022-11-11T02:08:05.113Z,34.03
2022-11-11T02:10:34.032Z,33.03
2022-11-11T02:13:19.531Z,32.13
2022-11-11T02:15:46.733Z,34.37
2022-11-11T02:18:13.582Z,36.60
2022-11-11T02:20:44.647Z,27.92
2022-11-11T02:23:24.658Z,32.35
2022-11-11T02:25:54.509Z,30.85
2022-11-11T02:28:22.597Z,29.53
2022-11-11T02:30:49.220Z,26.70
2022-11-11T02:33:15.693Z,32.78
2022-11-11T02:35:46.576Z,35.28
2022-11-11T02:38:13.771Z,27.17
2022-11-11T02:41:03.758Z,33.27
2022-11-11T02:43:34.188Z,34.58
2022-11-11T02:46:03.041Z,35.55
2022-11-11T02:48:30.141Z,36.05
2022-11-11T02:50:57.197Z,36.92
2022-11-11T02:53:24.391Z,42.27
2022-11-11T02:55:51.224Z,36.90
2022-11-11T02:58:18.169Z,31.02
2022-11-11T03:00:44.744Z,32.08
2022-11-11T03:03:11.545Z,31.20
2022-11-11T03:05:38.235Z,39.87
2022-11-11T03:08:05.897Z,33.63
2022-11-11T03:10:32.513Z,31.40
2022-11-11T03:12:59.149Z,31.80
2022-11-11T03:15:25.766Z,32.80
2022-11-11T03:17:52.434Z,36.50
2022-11-11T03:20:41.216Z,32.22
2022-11-11T03:23:13.365Z,28.77
2022-11-11T03:25:42.628Z,37.00
2022-11-11T03:28:14.476Z,34.28
2022-11-11T03:30:43.674Z,35.33
2022-11-11T03:33:10.668Z,29.77
2022-11-11T03:35:37.937Z,33.38
2022-11-11T03:38:23.632Z,32.88
2022-11-11T03:40:53.343Z,33.33
2022-11-11T03:43:22.110Z,26.83
2022-11-11T03:45:49.199Z,32.30
2022-11-11T03:48:16.014Z,27.83
2022-11-11T03:50:42.893Z,37.53
2022-11-11T03:53:09.545Z,34.88
2022-11-11T03:55:36.103Z,28.83
2022-11-11T03:58:02.618Z,28.20
2022-11-11T04:00:29.384Z,28.15
2022-11-11T04:03:31.608Z,27.92
2022-11-11T04:06:16.781Z,26.02
2022-11-11T04:09:02.176Z,36.17
2022-11-11T04:11:35.373Z,25.30
2022-11-11T04:14:23.472Z,30.83
2022-11-11T04:16:49.974Z,31.85
2022-11-11T04:19:34.973Z,28.80
2022-11-11T04:22:01.798Z,27.50
2022-11-11T04:24:47.147Z,32.42
2022-11-11T04:27:15.777Z,25.42
2022-11-11T04:29:42.781Z,27.70
2022-11-11T04:32:32.745Z,30.95
2022-11-11T04:35:01.771Z,26.07
2022-11-11T04:37:33.011Z,27.13
2022-11-11T04:40:17.957Z,38.45
2022-11-11T04:42:44.529Z,29.13
2022-11-11T04:45:30.876Z,32.47
2022-11-11T04:47:58.634Z,27.03
2022-11-11T04:50:30.459Z,28.85
2022-11-11T04:52:57.280Z,26.42
2022-11-11T04:55:42.702Z,26.77
2022-11-11T04:58:09.694Z,30.73
2022-11-11T05:00:36.496Z,27.43
2022-11-11T05:03:15.836Z,22.70
2022-11-11T05:06:07.919Z,25.00
2022-11-11T05:08:55.017Z,23.17
2022-11-11T05:11:23.387Z,30.33
2022-11-11T05:14:09.413Z,25.30
2022-11-11T05:17:01.826Z,24.83
2022-11-11T05:19:47.003Z,29.25
2022-11-11T05:22:26.652Z,26.15
2022-11-11T05:25:11.807Z,33.88
2022-11-11T05:27:38.752Z,28.43
2022-11-11T05:30:06.646Z,24.70
2022-11-11T05:32:33.126Z,27.95
2022-11-11T05:34:59.690Z,32.33
2022-11-11T05:37:26.278Z,28.30
2022-11-11T05:39:52.989Z,34.80
2022-11-11T05:42:19.555Z,33.13
2022-11-11T05:44:46.042Z,33.42
2022-11-11T05:47:12.534Z,32.65
2022-11-11T05:49:39.244Z,27.13
2022-11-11T05:52:06.793Z,24.70
2022-11-11T05:54:33.694Z,28.80
2022-11-11T05:57:00.717Z,26.83
2022-11-11T05:59:27.261Z,32.60
2022-11-11T06:01:54.604Z,27.20
2022-11-11T06:04:21.190Z,32.53
2022-11-11T06:06:47.727Z,33.22
2022-11-11T06:09:14.322Z,32.33
2022-11-11T06:11:40.863Z,31.70
2022-11-11T06:14:07.715Z,30.95
2022-11-11T06:16:34.439Z,29.77
2022-11-11T06:19:01.107Z,26.20
2022-11-11T06:21:27.645Z,29.98
2022-11-11T06:23:54.157Z,31.08
2022-11-11T06:26:20.717Z,29.95
2022-11-11T06:28:54.903Z,27.30
2022-11-11T06:31:26.710Z,31.55
2022-11-11T06:33:54.110Z,31.08
2022-11-11T06:36:22.114Z,24.95
2022-11-11T06:38:48.623Z,34.78
2022-11-11T06:41:15.689Z,33.67
2022-11-11T06:43:43.192Z,30.40
2022-11-11T06:46:23.326Z,29.27
2022-11-11T06:48:50.375Z,28.30
2022-11-11T06:51:17.324Z,33.88
2022-11-11T06:53:43.864Z,23.20
2022-11-11T06:56:12.651Z,28.83
2022-11-11T06:58:39.523Z,28.98
2022-11-11T07:01:07.497Z,34.28
2022-11-11T07:03:34.950Z,25.42
2022-11-11T07:06:02.919Z,30.00
2022-11-11T07:08:29.690Z,29.67
2022-11-11T07:10:56.243Z,30.63
2022-11-11T07:13:23.038Z,31.42
2022-11-11T07:15:49.544Z,29.92
2022-11-11T07:18:16.104Z,28.10
2022-11-11T07:20:42.627Z,25.77
2022-11-11T07:23:09.137Z,26.85
2022-11-11T07:25:35.841Z,32.33
2022-11-11T07:28:02.598Z,31.90
2022-11-11T07:30:29.411Z,35.87
2022-11-11T07:32:56.130Z,34.25
2022-11-11T07:35:22.961Z,34.50
2022-11-11T07:37:49.577Z,32.05
2022-11-11T07:40:18.437Z,29.92
2022-11-11T07:42:45.121Z,34.50
2022-11-11T07:45:13.138Z,34.72
2022-11-11T07:47:39.789Z,34.03
2022-11-11T07:50:08.477Z,29.17
2022-11-11T07:52:36.996Z,31.58
2022-11-11T07:55:04.986Z,35.27
2022-11-11T07:57:31.601Z,28.98
2022-11-11T07:59:58.142Z,27.90
2022-11-11T08:02:24.654Z,27.92
2022-11-11T08:04:55.111Z,28.88
2022-11-11T08:07:23.839Z,39.40
2022-11-11T08:09:51.645Z,30.48
2022-11-11T08:12:37.118Z,31.80
2022-11-11T08:15:06.923Z,29.58
2022-11-11T08:17:39.397Z,32.08
2022-11-11T08:20:11.040Z,27.83
2022-11-11T08:22:42.192Z,26.80
2022-11-11T08:25:14.733Z,24.52
2022-11-11T08:27:42.363Z,24.30
2022-11-11T08:30:09.552Z,29.95
2022-11-11T08:32:36.098Z,30.57
2022-11-11T08:35:02.643Z,33.33
2022-11-11T08:37:29.849Z,37.40
2022-11-11T08:39:57.439Z,32.50
2022-11-11T08:42:24.278Z,31.70
2022-11-11T08:44:51.776Z,32.17
2022-11-11T08:47:20.556Z,41.40
2022-11-11T08:49:49.442Z,36.30
2022-11-11T08:52:16.184Z,37.30
2022-11-11T08:54:42.923Z,45.03
2022-11-11T08:57:09.473Z,45.47
2022-11-11T08:59:36.013Z,40.00
2022-11-11T09:02:02.601Z,45.25
2022-11-11T09:04:43.701Z,56.80
2022-11-11T09:07:12.587Z,44.53
2022-11-11T09:09:39.160Z,44.80
2022-11-11T09:12:05.830Z,42.65
2022-11-11T09:14:32.458Z,44.47
2022-11-11T09:16:59.001Z,43.78
2022-11-11T09:19:25.545Z,46.13
2022-11-11T09:21:53.120Z,44.23
2022-11-11T09:24:19.678Z,39.72
2022-11-11T09:26:49.989Z,34.95
2022-11-11T09:29:17.806Z,31.90
2022-11-11T09:31:46.069Z,34.83
2022-11-11T09:34:14.173Z,36.17
2022-11-11T09:36:41.089Z,35.72
2022-11-11T09:39:07.681Z,34.25
2022-11-11T09:41:43.579Z,38.35
2022-11-11T09:45:09.020Z,34.63
2022-11-11T09:48:05.015Z,28.23
2022-11-11T09:50:37.406Z,30.50
2022-11-11T09:53:11.288Z,28.90
2022-11-11T09:55:44.877Z,28.83
2022-11-11T09:58:14.605Z,33.15
2022-11-11T10:00:45.374Z,24.50
2022-11-11T10:03:22.848Z,22.02
2022-11-11T10:05:56.932Z,26.55
2022-11-11T10:08:23.731Z,25.05
2022-11-11T10:10:53.432Z,26.92
2022-11-11T10:13:31.018Z,30.40
2022-11-11T10:16:15.472Z,30.25
2022-11-11T10:18:50.705Z,27.15
2022-11-11T10:21:26.557Z,28.60
2022-11-11T10:23:59.844Z,21.80
2022-11-11T10:26:35.617Z,21.10
2022-11-11T10:29:06.203Z,25.60
2022-11-11T10:31:33.155Z,22.52
2022-11-11T10:34:05.809Z,22.85
2022-11-11T10:36:37.137Z,21.08
2022-11-11T10:39:05.561Z,22.77
2022-11-11T10:41:39.236Z,22.38
2022-11-11T10:44:27.309Z,24.45
2022-11-11T10:47:10.992Z,20.40
2022-11-11T10:49:56.127Z,20.30
2022-11-11T10:52:38.361Z,18.07
2022-11-11T10:55:10.883Z,23.65
2022-11-11T10:57:46.708Z,23.42
2022-11-11T11:00:15.083Z,17.83
2022-11-11T11:02:56.903Z,16.27
2022-11-11T11:05:54.330Z,21.30
2022-11-11T11:08:27.008Z,15.73
2022-11-11T11:11:02.890Z,19.10
2022-11-11T11:14:04.814Z,20.65
2022-11-11T11:16:44.173Z,15.77
2022-11-11T11:19:22.145Z,16.90
2022-11-11T11:22:01.759Z,13.10
2022-11-11T11:24:33.701Z,13.35
2022-11-11T11:27:07.665Z,16.75
2022-11-11T11:29:39.671Z,12.48
2022-11-11T11:32:12.080Z,13.33
2022-11-11T11:34:48.325Z,11.40
2022-11-11T11:37:15.391Z,10.85
2022-11-11T11:39:42.308Z,10.82
2022-11-11T11:42:10.673Z,13.68
2022-11-11T11:44:38.973Z,14.20
2022-11-11T11:47:29.524Z,12.93
2022-11-11T11:50:20.902Z,11.57
2022-11-11T11:52:53.233Z,13.35
2022-11-11T11:55:33.606Z,9.25
2022-11-11T11:58:38.700Z,7.03
2022-11-11T12:01:24.826Z,9.63
2022-11-11T12:03:54.376Z,9.38
2022-11-11T12:06:47.370Z,11.23
2022-11-11T12:09:40.185Z,12.90
2022-11-11T12:12:27.294Z,11.90
2022-11-11T12:15:24.858Z,8.35
2022-11-11T12:17:59.771Z,11.02
2022-11-11T12:20:51.287Z,9.65
2022-11-11T12:23:36.473Z,9.70
2022-11-11T12:26:15.575Z,9.80
2022-11-11T12:28:42.169Z,9.27
2022-11-11T12:31:14.815Z,10.50
2022-11-11T12:33:44.414Z,13.10
2022-11-11T12:36:16.160Z,10.93
2022-11-11T12:38:51.376Z,8.67
2022-11-11T12:41:34.340Z,12.20
2022-11-11T12:44:12.752Z,14.60
2022-11-11T12:47:05.082Z,12.93
2022-11-11T12:49:51.445Z,9.25
2022-11-11T12:52:54.499Z,12.30
2022-11-11T12:55:59.889Z,12.63
2022-11-11T12:58:44.609Z,12.48
2022-11-11T13:01:18.746Z,11.48
2022-11-11T13:04:03.440Z,11.13
2022-11-11T13:06:41.954Z,19.93
2022-11-11T13:09:08.412Z,13.38
2022-11-11T13:11:53.187Z,16.40
2022-11-11T13:14:57.315Z,13.25
2022-11-11T13:17:24.634Z,14.68
2022-11-11T13:20:05.519Z,14.17
2022-11-11T13:22:33.201Z,13.60
2022-11-11T13:25:07.783Z,15.15
2022-11-11T13:27:50.640Z,18.25
2022-11-11T13:30:23.161Z,16.70
2022-11-11T13:33:00.287Z,12.67
2022-11-11T13:35:54.343Z,19.30
2022-11-11T13:38:28.626Z,14.73
2022-11-11T13:40:58.531Z,12.73
2022-11-11T13:43:34.324Z,11.05
2022-11-11T13:46:03.450Z,12.63
2022-11-11T13:48:38.654Z,15.30
2022-11-11T13:51:13.431Z,8.35
2022-11-11T13:53:42.059Z,13.80
2022-11-11T13:56:10.803Z,13.15
2022-11-11T13:58:41.537Z,12.70
2022-11-11T14:01:11.020Z,10.90
2022-11-11T14:03:43.360Z,11.40
2022-11-11T14:06:15.779Z,11.48
2022-11-11T14:08:50.358Z,10.68
2022-11-11T14:11:26.339Z,11.23
2022-11-11T14:13:54.850Z,11.18
2022-11-11T14:16:36.477Z,9.98
2022-11-11T14:19:21.296Z,9.18
2022-11-11T14:21:59.028Z,11.18
2022-11-11T14:24:37.281Z,9.47
2022-11-11T14:27:26.155Z,10.25
2022-11-11T14:29:54.966Z,16.35
2022-11-11T14:33:08.954Z,11.52
2022-11-11T14:36:24.995Z,11.13
2022-11-11T14:39:04.461Z,9.80
2022-11-11T14:41:51.707Z,11.10
2022-11-11T14:44:27.497Z,8.88
2022-11-11T14:47:34.167Z,7.60
2022-11-11T14:50:01.612Z,10.25
2022-11-11T14:52:44.954Z,10.13
2022-11-11T14:55:19.275Z,8.85
2022-11-11T14:58:05.796Z,7.53
2022-11-11T15:00:43.794Z,11.55
2022-11-11T15:03:21.074Z,11.93
2022-11-11T15:05:54.568Z,7.53
2022-11-11T15:08:26.380Z,9.00
2022-11-11T15:11:15.873Z,11.23
2022-11-11T15:14:04.193Z,9.05
2022-11-11T15:17:00.203Z,6.68
2022-11-11T15:20:18.899Z,7.60
2022-11-11T15:23:11.660Z,6.95
2022-11-11T15:25:45.271Z,7.38
2022-11-11T15:28:36.108Z,9.23
2022-11-11T15:31:46.144Z,9.60
2022-11-11T15:34:40.802Z,10.03
2022-11-11T15:37:15.298Z,8.23
2022-11-11T15:39:51.251Z,8.13
2022-11-11T15:42:26.780Z,9.68
2022-11-11T15:44:53.515Z,12.88
2022-11-11T15:47:24.628Z,7.67
2022-11-11T15:49:51.819Z,6.10
2022-11-11T15:52:31.825Z,7.93
2022-11-11T15:55:00.005Z,10.65
2022-11-11T15:57:30.940Z,9.75
2022-11-11T15:59:59.624Z,8.50
2022-11-11T16:02:31.627Z,17.90
2022-11-11T16:05:07.288Z,17.63
2022-11-11T16:07:58.107Z,11.18
2022-11-11T16:10:32.225Z,11.02
2022-11-11T16:13:04.649Z,13.50
2022-11-11T16:15:48.102Z,6.90
2022-11-11T16:18:27.780Z,9.73
2022-11-11T16:21:00.454Z,7.97
2022-11-11T16:23:28.460Z,9.15
2022-11-11T16:25:58.431Z,9.87
2022-11-11T16:28:27.698Z,9.80
2022-11-11T16:30:54.220Z,12.07
2022-11-11T16:33:33.662Z,9.00
2022-11-11T16:36:11.186Z,11.27
2022-11-11T16:38:44.019Z,8.17
2022-11-11T16:41:34.065Z,13.07
2022-11-11T16:44:00.605Z,10.90
2022-11-11T16:46:35.980Z,11.80
2022-11-11T16:49:29.233Z,18.45
2022-11-11T16:51:56.335Z,12.83
2022-11-11T16:54:27.189Z,16.02
2022-11-11T16:56:57.304Z,11.52
2022-11-11T16:59:39.338Z,13.93
2022-11-11T17:02:16.537Z,11.05
2022-11-11T17:04:48.347Z,15.70
2022-11-11T17:07:37.274Z,13.57
2022-11-11T17:10:09.623Z,14.45
2022-11-11T17:12:37.827Z,13.20
2022-11-11T17:15:06.341Z,12.10
2022-11-11T17:17:33.184Z,15.53
2022-11-11T17:20:24.306Z,11.10
2022-11-11T17:22:56.614Z,20.23
2022-11-11T17:25:23.136Z,12.45
2022-11-11T17:27:49.747Z,18.42
2022-11-11T17:30:16.453Z,24.20
2022-11-11T17:32:42.961Z,19.40
2022-11-11T17:35:11.672Z,17.38
2022-11-11T17:37:39.060Z,14.65
2022-11-11T17:40:10.338Z,16.88
2022-11-11T17:42:37.404Z,19.87
2022-11-11T17:45:05.273Z,16.65
2022-11-11T17:47:39.237Z,14.48
2022-11-11T17:50:09.172Z,14.90
2022-11-11T17:52:35.692Z,16.25
2022-11-11T17:55:02.271Z,18.23
2022-11-11T17:57:28.808Z,16.38
2022-11-11T17:59:55.318Z,16.30
2022-11-11T18:02:21.877Z,17.33
2022-11-11T18:04:48.645Z,15.27
2022-11-11T18:07:15.209Z,19.63
2022-11-11T18:09:41.787Z,14.63
2022-11-11T18:12:08.353Z,18.38
2022-11-11T18:14:34.896Z,16.98
2022-11-11T18:17:01.442Z,13.93
2022-11-11T18:19:27.990Z,19.67
2022-11-11T18:21:54.487Z,15.55
2022-11-11T18:24:20.962Z,13.48
2022-11-11T18:26:47.623Z,12.55
2022-11-11T18:29:14.194Z,14.57
2022-11-11T18:31:40.787Z,15.70
2022-11-11T18:34:07.351Z,18.45
2022-11-11T18:36:33.863Z,15.43
2022-11-11T18:39:00.482Z,21.10
2022-11-11T18:41:27.099Z,13.80
2022-11-11T18:43:54.258Z,14.43
2022-11-11T18:46:26.366Z,12.50
2022-11-11T18:48:58.847Z,15.90
2022-11-11T18:51:26.796Z,24.88
2022-11-11T18:53:53.326Z,17.63
2022-11-11T18:56:22.147Z,15.27
2022-11-11T18:58:53.882Z,14.85
2022-11-11T19:01:23.531Z,17.48
2022-11-11T19:03:52.202Z,13.27
2022-11-11T19:06:20.818Z,14.38
2022-11-11T19:08:48.729Z,13.83
2022-11-11T19:11:15.231Z,14.52
2022-11-11T19:13:41.834Z,19.85
2022-11-11T19:16:15.064Z,14.05
2022-11-11T19:18:42.420Z,14.50
2022-11-11T19:21:11.327Z,15.07
2022-11-11T19:23:38.173Z,16.80
2022-11-11T19:26:05.140Z,15.52
2022-11-11T19:28:31.843Z,19.30
2022-11-11T19:31:07.050Z,17.67
2022-11-11T19:33:35.895Z,15.47
2022-11-11T19:36:05.550Z,19.13
2022-11-11T19:38:32.626Z,18.05
2022-11-11T19:41:09.322Z,25.80
2022-11-11T19:43:36.723Z,23.90
2022-11-11T19:46:04.824Z,31.30
2022-11-11T19:48:31.912Z,36.22
2022-11-11T19:51:06.683Z,32.90
2022-11-11T19:53:33.493Z,30.40
2022-11-11T19:56:06.124Z,31.05
2022-11-11T19:58:32.950Z,31.67
2022-11-11T20:01:08.451Z,34.03
2022-11-11T20:03:35.933Z,30.50
2022-11-11T20:06:04.865Z,31.25
2022-11-11T20:08:33.008Z,28.23
2022-11-11T20:11:09.282Z,28.40
2022-11-11T20:13:39.915Z,26.67
2022-11-11T20:16:09.588Z,27.38
2022-11-11T20:18:36.128Z,22.50
2022-11-11T20:21:05.219Z,22.67
2022-11-11T20:23:35.491Z,27.27
2022-11-11T20:26:05.765Z,27.90
2022-11-11T20:28:32.649Z,24.02
2022-11-11T20:30:59.290Z,23.60
2022-11-11T20:33:26.149Z,23.73
2022-11-11T20:35:52.983Z,23.37
2022-11-11T20:38:19.475Z,22.77
2022-11-11T20:40:45.954Z,24.95
2022-11-11T20:43:12.479Z,26.33
2022-11-11T20:45:38.962Z,28.88
2022-11-11T20:48:08.480Z,25.40
2022-11-11T20:50:34.978Z,23.58
2022-11-11T20:53:01.441Z,21.13
2022-11-11T20:55:28.000Z,21.45
2022-11-11T20:57:54.493Z,19.55
2022-11-11T21:00:21.091Z,22.93
2022-11-11T21:02:47.588Z,28.17
2022-11-11T21:05:14.130Z,27.38
2022-11-11T21:07:40.617Z,24.52
2022-11-11T21:10:07.202Z,22.23
2022-11-11T21:12:33.769Z,27.50
2022-11-11T21:15:00.299Z,25.25
2022-11-11T21:17:26.834Z,23.45
2022-11-11T21:19:53.374Z,25.15
2022-11-11T21:22:19.860Z,27.90
2022-11-11T21:24:46.428Z,28.97
2022-11-11T21:27:13.160Z,24.08
2022-11-11T21:29:39.941Z,26.60
2022-11-11T21:32:06.783Z,25.05
2022-11-11T21:34:33.263Z,31.15
2022-11-11T21:36:59.843Z,24.20
2022-11-11T21:39:26.365Z,33.67
2022-11-11T21:41:52.911Z,35.55
2022-11-11T21:44:19.365Z,27.77
2022-11-11T21:46:45.895Z,29.98
2022-11-11T21:49:12.352Z,30.87
2022-11-11T21:51:38.898Z,32.22
2022-11-11T21:54:08.940Z,23.70
2022-11-11T21:56:37.432Z,28.00
2022-11-11T21:59:06.165Z,32.30
2022-11-11T22:01:36.174Z,34.20
2022-11-11T22:04:08.965Z,29.63
2022-11-11T22:06:35.987Z,30.80
2022-11-11T22:09:04.092Z,30.55
2022-11-11T22:11:33.381Z,29.02
2022-11-11T22:14:01.546Z,37.00
2022-11-11T22:16:36.551Z,34.63
2022-11-11T22:19:14.856Z,33.85
2022-11-11T22:21:43.073Z,33.25
2022-11-11T22:24:11.018Z,37.70
2022-11-11T22:26:39.873Z,31.07
2022-11-11T22:29:08.521Z,33.85
2022-11-11T22:31:37.310Z,31.05
2022-11-11T22:34:06.368Z,33.63
2022-11-11T22:36:34.400Z,32.53
2022-11-11T22:39:01.231Z,34.63
2022-11-11T22:41:31.000Z,38.35
2022-11-11T22:44:00.667Z,36.83
2022-11-11T22:46:28.798Z,45.78
2022-11-11T22:49:04.068Z,36.97
2022-11-11T22:51:32.020Z,39.60
2022-11-11T22:54:01.402Z,47.03
2022-11-11T22:56:28.692Z,46.00
2022-11-11T22:58:56.539Z,34.25
2022-11-11T23:01:30.546Z,43.20
2022-11-11T23:03:59.919Z,38.33
2022-11-11T23:06:38.882Z,33.63
2022-11-11T23:09:05.767Z,29.38
2022-11-11T23:11:34.528Z,33.00
2022-11-11T23:14:05.239Z,25.05
2022-11-11T23:16:32.222Z,29.67
2022-11-11T23:19:00.219Z,26.40
2022-11-11T23:21:28.605Z,30.55
2022-11-11T23:23:55.871Z,24.58
2022-11-11T23:26:25.801Z,25.67
2022-11-11T23:28:52.681Z,26.27
2022-11-11T23:31:21.917Z,26.38
2022-11-11T23:33:50.801Z,28.83
2022-11-11T23:36:19.789Z,26.02
2022-11-11T23:38:47.881Z,23.60
2022-11-11T23:41:14.449Z,26.70
2022-11-11T23:43:41.076Z,24.13
2022-11-11T23:46:08.690Z,27.98
2022-11-11T23:48:35.777Z,28.45
2022-11-11T23:51:02.795Z,29.38
2022-11-11T23:53:30.097Z,29.57
2022-11-11T23:55:57.174Z,25.55
2022-11-11T23:58:24.385Z,27.52
